Terminal Aerodrome Forecast
Issued by NWS Shreveport, LA

Home | Current Version | Previous Version | Text Only | Print | Product List | Glossary On
Versions: 1 2 3 4 5 6 7 8 9 10 11 12 13
000
FTUS44 KSHV 050544
TAFTYR
TAF
KTYR 050544Z 0506/0606 17007KT P6SM SCT130
     FM051300 20009KT P6SM SCT013 SCT130
     FM051500 21010KT P6SM SCT020 SCT130
     FM051700 21010KT P6SM SCT050 SCT250
     FM060200 19006KT P6SM SKC=

USA.gov is the U.S. government's official web portal to all federal, state and local government web resources and services.